sensor_id;sensor_type;location;lat;lon;timestamp;P1;durP1;ratioP1;P2;durP2;ratioP2
3993;SDS011;2011;48.238;13.948;2024-01-06T00:01:10;20.43;;;10.30;;
3993;SDS011;2011;48.238;13.948;2024-01-06T00:03:38;15.77;;;8.70;;
3993;SDS011;2011;48.238;13.948;2024-01-06T00:06:05;26.20;;;9.70;;
3993;SDS011;2011;48.238;13.948;2024-01-06T00:08:32;23.63;;;11.27;;
3993;SDS011;2011;48.238;13.948;2024-01-06T00:10:59;19.47;;;10.60;;
3993;SDS011;2011;48.238;13.948;2024-01-06T00:13:29;17.70;;;10.43;;
3993;SDS011;2011;48.238;13.948;2024-01-06T00:15:56;18.53;;;10.27;;
3993;SDS011;2011;48.238;13.948;2024-01-06T00:18:23;20.83;;;10.00;;
3993;SDS011;2011;48.238;13.948;2024-01-06T00:20:50;21.57;;;11.47;;
3993;SDS011;2011;48.238;13.948;2024-01-06T00:23:18;19.03;;;9.77;;
3993;SDS011;2011;48.238;13.948;2024-01-06T00:25:45;17.03;;;9.57;;
3993;SDS011;2011;48.238;13.948;2024-01-06T00:28:12;15.67;;;9.97;;
3993;SDS011;2011;48.238;13.948;2024-01-06T00:30:40;18.90;;;9.33;;
3993;SDS011;2011;48.238;13.948;2024-01-06T00:33:07;20.37;;;10.00;;
3993;SDS011;2011;48.238;13.948;2024-01-06T00:35:34;17.87;;;10.10;;
3993;SDS011;2011;48.238;13.948;2024-01-06T00:38:01;20.70;;;9.97;;
3993;SDS011;2011;48.238;13.948;2024-01-06T00:40:28;20.93;;;9.97;;
3993;SDS011;2011;48.238;13.948;2024-01-06T00:42:57;18.27;;;9.67;;
3993;SDS011;2011;48.238;13.948;2024-01-06T00:45:24;16.80;;;10.53;;
3993;SDS011;2011;48.238;13.948;2024-01-06T00:47:53;15.13;;;9.20;;
3993;SDS011;2011;48.238;13.948;2024-01-06T00:50:20;18.73;;;9.50;;
3993;SDS011;2011;48.238;13.948;2024-01-06T00:52:47;16.83;;;9.70;;
3993;SDS011;2011;48.238;13.948;2024-01-06T00:55:17;18.30;;;9.43;;
3993;SDS011;2011;48.238;13.948;2024-01-06T00:57:44;20.57;;;10.43;;
3993;SDS011;2011;48.238;13.948;2024-01-06T01:00:11;16.60;;;9.00;;
3993;SDS011;2011;48.238;13.948;2024-01-06T01:02:39;18.10;;;10.27;;
3993;SDS011;2011;48.238;13.948;2024-01-06T01:05:08;21.00;;;9.63;;
3993;SDS011;2011;48.238;13.948;2024-01-06T01:07:35;22.83;;;10.13;;
3993;SDS011;2011;48.238;13.948;2024-01-06T01:10:02;27.53;;;10.27;;
3993;SDS011;2011;48.238;13.948;2024-01-06T01:12:29;28.53;;;11.10;;
3993;SDS011;2011;48.238;13.948;2024-01-06T01:14:57;16.27;;;9.43;;
3993;SDS011;2011;48.238;13.948;2024-01-06T01:17:24;17.73;;;10.20;;
3993;SDS011;2011;48.238;13.948;2024-01-06T01:19:51;17.10;;;11.00;;
3993;SDS011;2011;48.238;13.948;2024-01-06T01:22:19;18.37;;;11.27;;
3993;SDS011;2011;48.238;13.948;2024-01-06T01:24:47;20.43;;;10.90;;
3993;SDS011;2011;48.238;13.948;2024-01-06T01:27:14;18.73;;;11.23;;
3993;SDS011;2011;48.238;13.948;2024-01-06T01:29:41;20.90;;;11.00;;
3993;SDS011;2011;48.238;13.948;2024-01-06T01:32:08;26.03;;;10.37;;
3993;SDS011;2011;48.238;13.948;2024-01-06T01:34:35;18.50;;;10.87;;
3993;SDS011;2011;48.238;13.948;2024-01-06T01:37:02;16.43;;;10.70;;
3993;SDS011;2011;48.238;13.948;2024-01-06T01:39:31;19.90;;;10.53;;
3993;SDS011;2011;48.238;13.948;2024-01-06T01:41:57;19.70;;;9.83;;
3993;SDS011;2011;48.238;13.948;2024-01-06T01:44:25;24.53;;;11.57;;
3993;SDS011;2011;48.238;13.948;2024-01-06T01:46:52;20.80;;;11.30;;
3993;SDS011;2011;48.238;13.948;2024-01-06T01:49:19;22.30;;;11.67;;
3993;SDS011;2011;48.238;13.948;2024-01-06T01:51:46;20.80;;;11.60;;
3993;SDS011;2011;48.238;13.948;2024-01-06T01:54:15;14.70;;;9.80;;
3993;SDS011;2011;48.238;13.948;2024-01-06T01:56:43;18.93;;;10.80;;
3993;SDS011;2011;48.238;13.948;2024-01-06T01:59:11;17.90;;;11.20;;
3993;SDS011;2011;48.238;13.948;2024-01-06T02:01:39;21.47;;;11.23;;
3993;SDS011;2011;48.238;13.948;2024-01-06T02:04:07;23.57;;;11.23;;
3993;SDS011;2011;48.238;13.948;2024-01-06T02:06:34;23.30;;;10.40;;
3993;SDS011;2011;48.238;13.948;2024-01-06T02:09:01;20.60;;;10.90;;
3993;SDS011;2011;48.238;13.948;2024-01-06T02:11:28;22.07;;;10.60;;
3993;SDS011;2011;48.238;13.948;2024-01-06T02:13:57;26.13;;;11.07;;
3993;SDS011;2011;48.238;13.948;2024-01-06T02:16:23;16.40;;;10.50;;
3993;SDS011;2011;48.238;13.948;2024-01-06T02:18:50;21.83;;;11.50;;
3993;SDS011;2011;48.238;13.948;2024-01-06T02:21:17;18.03;;;9.43;;
3993;SDS011;2011;48.238;13.948;2024-01-06T02:23:47;31.10;;;12.53;;
3993;SDS011;2011;48.238;13.948;2024-01-06T02:26:15;19.70;;;12.00;;
3993;SDS011;2011;48.238;13.948;2024-01-06T02:28:42;22.50;;;11.10;;
3993;SDS011;2011;48.238;13.948;2024-01-06T02:31:13;21.13;;;10.80;;
3993;SDS011;2011;48.238;13.948;2024-01-06T02:33:40;21.40;;;11.70;;
3993;SDS011;2011;48.238;13.948;2024-01-06T02:36:07;27.43;;;11.43;;
3993;SDS011;2011;48.238;13.948;2024-01-06T02:38:34;20.23;;;10.80;;
3993;SDS011;2011;48.238;13.948;2024-01-06T02:41:02;21.37;;;10.60;;
3993;SDS011;2011;48.238;13.948;2024-01-06T02:43:29;18.50;;;10.20;;
3993;SDS011;2011;48.238;13.948;2024-01-06T02:45:56;17.40;;;10.40;;
3993;SDS011;2011;48.238;13.948;2024-01-06T02:48:23;21.40;;;11.10;;
3993;SDS011;2011;48.238;13.948;2024-01-06T02:50:50;18.93;;;10.57;;
3993;SDS011;2011;48.238;13.948;2024-01-06T02:53:17;14.83;;;9.50;;
3993;SDS011;2011;48.238;13.948;2024-01-06T02:55:44;20.20;;;11.37;;
3993;SDS011;2011;48.238;13.948;2024-01-06T02:58:13;16.93;;;9.63;;
3993;SDS011;2011;48.238;13.948;2024-01-06T03:00:40;18.50;;;10.03;;
3993;SDS011;2011;48.238;13.948;2024-01-06T03:03:07;17.80;;;10.50;;
3993;SDS011;2011;48.238;13.948;2024-01-06T03:05:34;16.73;;;9.83;;
3993;SDS011;2011;48.238;13.948;2024-01-06T03:08:02;24.70;;;10.80;;
3993;SDS011;2011;48.238;13.948;2024-01-06T03:10:28;18.60;;;10.00;;
3993;SDS011;2011;48.238;13.948;2024-01-06T03:12:55;17.80;;;10.20;;
3993;SDS011;2011;48.238;13.948;2024-01-06T03:15:24;17.03;;;9.93;;
3993;SDS011;2011;48.238;13.948;2024-01-06T03:17:51;17.30;;;9.33;;
3993;SDS011;2011;48.238;13.948;2024-01-06T03:20:19;23.20;;;11.33;;
3993;SDS011;2011;48.238;13.948;2024-01-06T03:22:46;16.73;;;9.00;;
3993;SDS011;2011;48.238;13.948;2024-01-06T03:25:13;20.63;;;11.13;;
3993;SDS011;2011;48.238;13.948;2024-01-06T03:27:40;19.83;;;12.53;;
3993;SDS011;2011;48.238;13.948;2024-01-06T03:30:07;26.10;;;11.00;;
3993;SDS011;2011;48.238;13.948;2024-01-06T03:32:36;21.90;;;12.03;;
3993;SDS011;2011;48.238;13.948;2024-01-06T03:35:03;22.67;;;11.80;;
3993;SDS011;2011;48.238;13.948;2024-01-06T03:37:32;18.10;;;10.13;;
3993;SDS011;2011;48.238;13.948;2024-01-06T03:39:59;18.90;;;10.60;;
3993;SDS011;2011;48.238;13.948;2024-01-06T03:42:26;18.93;;;10.70;;
3993;SDS011;2011;48.238;13.948;2024-01-06T03:44:53;30.33;;;10.43;;
3993;SDS011;2011;48.238;13.948;2024-01-06T03:47:20;23.60;;;11.27;;
3993;SDS011;2011;48.238;13.948;2024-01-06T03:49:49;19.83;;;9.43;;
3993;SDS011;2011;48.238;13.948;2024-01-06T03:52:16;19.03;;;10.80;;
3993;SDS011;2011;48.238;13.948;2024-01-06T03:54:44;18.90;;;10.27;;
3993;SDS011;2011;48.238;13.948;2024-01-06T03:57:11;19.33;;;10.63;;
3993;SDS011;2011;48.238;13.948;2024-01-06T03:59:38;21.20;;;10.80;;
3993;SDS011;2011;48.238;13.948;2024-01-06T04:02:05;22.37;;;10.17;;
3993;SDS011;2011;48.238;13.948;2024-01-06T04:04:32;22.10;;;10.50;;
3993;SDS011;2011;48.238;13.948;2024-01-06T04:07:01;26.33;;;11.03;;
3993;SDS011;2011;48.238;13.948;2024-01-06T04:09:28;17.67;;;10.00;;
3993;SDS011;2011;48.238;13.948;2024-01-06T04:11:55;18.13;;;11.10;;
3993;SDS011;2011;48.238;13.948;2024-01-06T04:14:23;19.00;;;11.00;;
3993;SDS011;2011;48.238;13.948;2024-01-06T04:16:50;17.70;;;11.20;;
3993;SDS011;2011;48.238;13.948;2024-01-06T04:19:18;17.97;;;11.20;;
3993;SDS011;2011;48.238;13.948;2024-01-06T04:21:45;18.80;;;11.30;;
3993;SDS011;2011;48.238;13.948;2024-01-06T04:24:14;19.60;;;12.10;;
3993;SDS011;2011;48.238;13.948;2024-01-06T04:26:41;22.63;;;11.97;;
3993;SDS011;2011;48.238;13.948;2024-01-06T04:29:10;20.20;;;12.93;;
3993;SDS011;2011;48.238;13.948;2024-01-06T04:31:37;18.37;;;11.70;;
3993;SDS011;2011;48.238;13.948;2024-01-06T04:34:04;24.37;;;13.60;;
3993;SDS011;2011;48.238;13.948;2024-01-06T04:36:31;20.30;;;12.80;;
3993;SDS011;2011;48.238;13.948;2024-01-06T04:38:58;17.50;;;11.00;;
3993;SDS011;2011;48.238;13.948;2024-01-06T04:41:26;19.00;;;10.57;;
3993;SDS011;2011;48.238;13.948;2024-01-06T04:43:53;25.03;;;13.40;;
3993;SDS011;2011;48.238;13.948;2024-01-06T04:46:21;20.20;;;12.00;;
3993;SDS011;2011;48.238;13.948;2024-01-06T04:48:48;19.20;;;12.63;;
3993;SDS011;2011;48.238;13.948;2024-01-06T04:51:15;22.23;;;13.73;;
3993;SDS011;2011;48.238;13.948;2024-01-06T04:53:42;20.87;;;12.77;;
3993;SDS011;2011;48.238;13.948;2024-01-06T04:56:08;21.70;;;14.43;;
3993;SDS011;2011;48.238;13.948;2024-01-06T04:58:37;23.03;;;12.97;;
3993;SDS011;2011;48.238;13.948;2024-01-06T05:01:04;17.80;;;11.93;;
3993;SDS011;2011;48.238;13.948;2024-01-06T05:03:31;19.10;;;12.23;;
3993;SDS011;2011;48.238;13.948;2024-01-06T05:05:58;23.57;;;13.80;;
3993;SDS011;2011;48.238;13.948;2024-01-06T05:08:24;26.20;;;12.30;;
3993;SDS011;2011;48.238;13.948;2024-01-06T05:10:52;22.30;;;12.80;;
3993;SDS011;2011;48.238;13.948;2024-01-06T05:13:19;22.70;;;13.00;;
3993;SDS011;2011;48.238;13.948;2024-01-06T05:15:47;23.33;;;13.63;;
3993;SDS011;2011;48.238;13.948;2024-01-06T05:18:14;21.30;;;12.27;;
3993;SDS011;2011;48.238;13.948;2024-01-06T05:20:42;16.73;;;11.43;;
3993;SDS011;2011;48.238;13.948;2024-01-06T05:23:09;16.37;;;10.43;;
3993;SDS011;2011;48.238;13.948;2024-01-06T05:25:36;19.87;;;11.87;;
3993;SDS011;2011;48.238;13.948;2024-01-06T05:28:03;18.43;;;11.20;;
3993;SDS011;2011;48.238;13.948;2024-01-06T05:30:30;27.87;;;13.17;;
3993;SDS011;2011;48.238;13.948;2024-01-06T05:32:58;19.47;;;12.20;;
3993;SDS011;2011;48.238;13.948;2024-01-06T05:35:25;19.13;;;11.27;;
3993;SDS011;2011;48.238;13.948;2024-01-06T05:37:52;24.10;;;11.60;;
3993;SDS011;2011;48.238;13.948;2024-01-06T05:40:19;19.50;;;12.00;;
3993;SDS011;2011;48.238;13.948;2024-01-06T05:42:46;53.73;;;29.07;;
3993;SDS011;2011;48.238;13.948;2024-01-06T05:45:12;42.47;;;22.10;;
3993;SDS011;2011;48.238;13.948;2024-01-06T05:47:39;25.87;;;14.23;;
3993;SDS011;2011;48.238;13.948;2024-01-06T05:50:08;19.67;;;12.87;;
3993;SDS011;2011;48.238;13.948;2024-01-06T05:52:35;23.83;;;13.47;;
3993;SDS011;2011;48.238;13.948;2024-01-06T05:55:03;21.50;;;12.03;;
3993;SDS011;2011;48.238;13.948;2024-01-06T05:57:30;22.50;;;13.50;;
3993;SDS011;2011;48.238;13.948;2024-01-06T05:59:57;23.47;;;14.43;;
3993;SDS011;2011;48.238;13.948;2024-01-06T06:02:25;31.33;;;19.73;;
3993;SDS011;2011;48.238;13.948;2024-01-06T06:04:52;21.77;;;14.97;;
3993;SDS011;2011;48.238;13.948;2024-01-06T06:07:20;21.20;;;14.70;;
3993;SDS011;2011;48.238;13.948;2024-01-06T06:09:47;26.40;;;14.63;;
3993;SDS011;2011;48.238;13.948;2024-01-06T06:12:14;19.90;;;13.50;;
3993;SDS011;2011;48.238;13.948;2024-01-06T06:14:41;22.60;;;14.53;;
3993;SDS011;2011;48.238;13.948;2024-01-06T06:17:08;22.10;;;13.27;;
3993;SDS011;2011;48.238;13.948;2024-01-06T06:19:35;21.40;;;13.37;;
3993;SDS011;2011;48.238;13.948;2024-01-06T06:22:01;27.63;;;15.33;;
3993;SDS011;2011;48.238;13.948;2024-01-06T06:24:30;22.63;;;15.23;;
3993;SDS011;2011;48.238;13.948;2024-01-06T06:26:57;30.67;;;15.90;;
3993;SDS011;2011;48.238;13.948;2024-01-06T06:29:24;21.50;;;14.50;;
3993;SDS011;2011;48.238;13.948;2024-01-06T06:31:51;24.60;;;16.07;;
3993;SDS011;2011;48.238;13.948;2024-01-06T06:34:18;23.33;;;15.27;;
3993;SDS011;2011;48.238;13.948;2024-01-06T06:36:45;30.73;;;17.57;;
3993;SDS011;2011;48.238;13.948;2024-01-06T06:39:12;48.13;;;21.50;;
3993;SDS011;2011;48.238;13.948;2024-01-06T06:41:40;27.40;;;16.70;;
3993;SDS011;2011;48.238;13.948;2024-01-06T06:44:07;27.03;;;17.50;;
3993;SDS011;2011;48.238;13.948;2024-01-06T06:46:35;25.23;;;16.00;;
3993;SDS011;2011;48.238;13.948;2024-01-06T06:49:03;25.80;;;15.73;;
3993;SDS011;2011;48.238;13.948;2024-01-06T06:51:30;22.37;;;14.63;;
3993;SDS011;2011;48.238;13.948;2024-01-06T06:53:56;30.40;;;17.70;;
3993;SDS011;2011;48.238;13.948;2024-01-06T06:56:23;26.47;;;15.97;;
3993;SDS011;2011;48.238;13.948;2024-01-06T06:58:52;24.17;;;17.23;;
3993;SDS011;2011;48.238;13.948;2024-01-06T07:01:19;23.93;;;14.93;;
3993;SDS011;2011;48.238;13.948;2024-01-06T07:03:46;24.70;;;15.43;;
3993;SDS011;2011;48.238;13.948;2024-01-06T07:06:13;26.37;;;16.70;;
3993;SDS011;2011;48.238;13.948;2024-01-06T07:08:40;29.87;;;17.30;;
3993;SDS011;2011;48.238;13.948;2024-01-06T07:11:07;27.37;;;17.37;;
3993;SDS011;2011;48.238;13.948;2024-01-06T07:13:36;29.00;;;18.63;;
3993;SDS011;2011;48.238;13.948;2024-01-06T07:16:04;26.43;;;17.60;;
3993;SDS011;2011;48.238;13.948;2024-01-06T07:18:32;25.40;;;16.43;;
3993;SDS011;2011;48.238;13.948;2024-01-06T07:20:59;28.63;;;15.90;;
3993;SDS011;2011;48.238;13.948;2024-01-06T07:23:26;37.60;;;22.57;;
3993;SDS011;2011;48.238;13.948;2024-01-06T07:25:52;59.93;;;30.10;;
3993;SDS011;2011;48.238;13.948;2024-01-06T07:28:21;35.57;;;19.57;;
3993;SDS011;2011;48.238;13.948;2024-01-06T07:30:48;38.97;;;20.50;;
3993;SDS011;2011;48.238;13.948;2024-01-06T07:33:17;32.37;;;19.07;;
3993;SDS011;2011;48.238;13.948;2024-01-06T07:35:43;29.40;;;19.13;;
3993;SDS011;2011;48.238;13.948;2024-01-06T07:38:11;28.60;;;19.67;;
3993;SDS011;2011;48.238;13.948;2024-01-06T07:40:38;33.57;;;19.37;;
3993;SDS011;2011;48.238;13.948;2024-01-06T07:43:05;33.77;;;20.97;;
3993;SDS011;2011;48.238;13.948;2024-01-06T07:45:32;38.33;;;21.80;;
3993;SDS011;2011;48.238;13.948;2024-01-06T07:48:00;30.47;;;20.53;;
3993;SDS011;2011;48.238;13.948;2024-01-06T07:50:28;28.87;;;20.60;;
3993;SDS011;2011;48.238;13.948;2024-01-06T07:52:55;32.60;;;20.23;;
3993;SDS011;2011;48.238;13.948;2024-01-06T07:55:23;36.70;;;20.13;;
3993;SDS011;2011;48.238;13.948;2024-01-06T07:57:53;26.37;;;17.33;;
3993;SDS011;2011;48.238;13.948;2024-01-06T08:00:20;25.73;;;16.20;;
3993;SDS011;2011;48.238;13.948;2024-01-06T08:02:47;34.10;;;18.53;;
3993;SDS011;2011;48.238;13.948;2024-01-06T08:05:15;30.10;;;19.73;;
3993;SDS011;2011;48.238;13.948;2024-01-06T08:07:43;37.27;;;23.13;;
3993;SDS011;2011;48.238;13.948;2024-01-06T08:10:10;40.07;;;24.93;;
3993;SDS011;2011;48.238;13.948;2024-01-06T08:12:37;41.17;;;26.47;;
3993;SDS011;2011;48.238;13.948;2024-01-06T08:15:04;31.97;;;22.00;;
3993;SDS011;2011;48.238;13.948;2024-01-06T08:17:33;66.90;;;32.70;;
3993;SDS011;2011;48.238;13.948;2024-01-06T08:20:00;46.73;;;25.87;;
3993;SDS011;2011;48.238;13.948;2024-01-06T08:22:28;32.37;;;21.27;;
3993;SDS011;2011;48.238;13.948;2024-01-06T08:24:57;31.27;;;20.00;;
3993;SDS011;2011;48.238;13.948;2024-01-06T08:27:23;33.27;;;20.77;;
3993;SDS011;2011;48.238;13.948;2024-01-06T08:29:50;31.33;;;19.63;;
3993;SDS011;2011;48.238;13.948;2024-01-06T08:32:17;30.63;;;18.47;;
3993;SDS011;2011;48.238;13.948;2024-01-06T08:34:44;31.47;;;20.07;;
3993;SDS011;2011;48.238;13.948;2024-01-06T08:37:11;26.07;;;17.80;;
3993;SDS011;2011;48.238;13.948;2024-01-06T08:39:39;37.53;;;22.47;;
3993;SDS011;2011;48.238;13.948;2024-01-06T08:42:07;33.30;;;22.00;;
3993;SDS011;2011;48.238;13.948;2024-01-06T08:44:34;38.07;;;21.97;;
3993;SDS011;2011;48.238;13.948;2024-01-06T08:47:01;31.50;;;20.67;;
3993;SDS011;2011;48.238;13.948;2024-01-06T08:49:28;32.93;;;21.50;;
3993;SDS011;2011;48.238;13.948;2024-01-06T08:51:55;39.83;;;22.37;;
3993;SDS011;2011;48.238;13.948;2024-01-06T08:54:22;41.80;;;26.40;;
3993;SDS011;2011;48.238;13.948;2024-01-06T08:56:49;38.00;;;24.57;;
3993;SDS011;2011;48.238;13.948;2024-01-06T08:59:17;42.93;;;25.40;;
3993;SDS011;2011;48.238;13.948;2024-01-06T09:01:45;41.93;;;23.63;;
3993;SDS011;2011;48.238;13.948;2024-01-06T09:04:12;36.50;;;22.90;;
3993;SDS011;2011;48.238;13.948;2024-01-06T09:06:39;38.03;;;25.90;;
3993;SDS011;2011;48.238;13.948;2024-01-06T09:09:07;43.07;;;25.87;;
3993;SDS011;2011;48.238;13.948;2024-01-06T09:11:34;34.80;;;22.63;;
3993;SDS011;2011;48.238;13.948;2024-01-06T09:14:01;34.33;;;21.20;;
3993;SDS011;2011;48.238;13.948;2024-01-06T09:16:30;29.10;;;19.60;;
3993;SDS011;2011;48.238;13.948;2024-01-06T09:18:56;31.07;;;20.83;;
3993;SDS011;2011;48.238;13.948;2024-01-06T09:21:23;35.83;;;21.33;;
3993;SDS011;2011;48.238;13.948;2024-01-06T09:23:51;36.27;;;19.30;;
3993;SDS011;2011;48.238;13.948;2024-01-06T09:26:18;33.00;;;20.87;;
3993;SDS011;2011;48.238;13.948;2024-01-06T09:28:45;30.93;;;18.50;;
3993;SDS011;2011;48.238;13.948;2024-01-06T09:31:12;28.40;;;18.53;;
3993;SDS011;2011;48.238;13.948;2024-01-06T09:33:41;31.80;;;20.00;;
3993;SDS011;2011;48.238;13.948;2024-01-06T09:36:08;30.67;;;20.03;;
3993;SDS011;2011;48.238;13.948;2024-01-06T09:38:37;26.17;;;18.63;;
3993;SDS011;2011;48.238;13.948;2024-01-06T09:41:04;32.80;;;19.80;;
3993;SDS011;2011;48.238;13.948;2024-01-06T09:43:31;33.93;;;22.27;;
3993;SDS011;2011;48.238;13.948;2024-01-06T09:46:01;35.33;;;20.90;;
3993;SDS011;2011;48.238;13.948;2024-01-06T09:48:39;26.17;;;17.80;;
3993;SDS011;2011;48.238;13.948;2024-01-06T09:51:09;18.30;;;14.03;;
3993;SDS011;2011;48.238;13.948;2024-01-06T09:53:39;20.57;;;14.20;;
3993;SDS011;2011;48.238;13.948;2024-01-06T09:56:13;19.30;;;12.23;;
3993;SDS011;2011;48.238;13.948;2024-01-06T09:58:41;37.00;;;22.83;;
3993;SDS011;2011;48.238;13.948;2024-01-06T10:01:09;35.50;;;22.07;;
3993;SDS011;2011;48.238;13.948;2024-01-06T10:03:37;35.53;;;23.60;;
3993;SDS011;2011;48.238;13.948;2024-01-06T10:06:06;30.07;;;18.60;;
3993;SDS011;2011;48.238;13.948;2024-01-06T10:08:34;34.63;;;21.50;;
3993;SDS011;2011;48.238;13.948;2024-01-06T10:11:01;23.70;;;16.60;;
3993;SDS011;2011;48.238;13.948;2024-01-06T10:13:28;33.83;;;19.83;;
3993;SDS011;2011;48.238;13.948;2024-01-06T10:15:55;25.80;;;18.00;;
3993;SDS011;2011;48.238;13.948;2024-01-06T10:18:24;23.67;;;14.47;;
3993;SDS011;2011;48.238;13.948;2024-01-06T10:20:52;18.73;;;13.30;;
3993;SDS011;2011;48.238;13.948;2024-01-06T10:23:21;14.67;;;10.63;;
3993;SDS011;2011;48.238;13.948;2024-01-06T10:25:51;18.10;;;11.03;;
3993;SDS011;2011;48.238;13.948;2024-01-06T10:28:18;17.57;;;10.50;;
3993;SDS011;2011;48.238;13.948;2024-01-06T10:30:47;13.53;;;9.10;;
3993;SDS011;2011;48.238;13.948;2024-01-06T10:33:14;12.03;;;8.70;;
3993;SDS011;2011;48.238;13.948;2024-01-06T10:35:41;13.70;;;10.60;;
3993;SDS011;2011;48.238;13.948;2024-01-06T10:38:09;13.23;;;8.70;;
3993;SDS011;2011;48.238;13.948;2024-01-06T10:40:37;13.87;;;8.47;;
3993;SDS011;2011;48.238;13.948;2024-01-06T10:43:04;17.67;;;9.17;;
3993;SDS011;2011;48.238;13.948;2024-01-06T10:45:32;10.87;;;8.33;;
3993;SDS011;2011;48.238;13.948;2024-01-06T10:47:59;11.70;;;8.47;;
3993;SDS011;2011;48.238;13.948;2024-01-06T10:50:28;15.37;;;8.30;;
3993;SDS011;2011;48.238;13.948;2024-01-06T10:52:56;10.80;;;7.40;;
3993;SDS011;2011;48.238;13.948;2024-01-06T10:55:23;8.40;;;5.90;;
3993;SDS011;2011;48.238;13.948;2024-01-06T10:57:54;9.93;;;7.17;;
3993;SDS011;2011;48.238;13.948;2024-01-06T11:00:22;9.87;;;6.20;;
3993;SDS011;2011;48.238;13.948;2024-01-06T11:02:49;10.63;;;6.23;;
3993;SDS011;2011;48.238;13.948;2024-01-06T11:05:18;8.40;;;6.00;;
3993;SDS011;2011;48.238;13.948;2024-01-06T11:07:46;8.00;;;4.67;;
3993;SDS011;2011;48.238;13.948;2024-01-06T11:10:17;9.80;;;5.87;;
3993;SDS011;2011;48.238;13.948;2024-01-06T11:12:45;6.23;;;5.10;;
3993;SDS011;2011;48.238;13.948;2024-01-06T11:18:31;5.07;;;3.93;;
3993;SDS011;2011;48.238;13.948;2024-01-06T11:21:21;6.43;;;3.77;;
3993;SDS011;2011;48.238;13.948;2024-01-06T11:24:04;5.30;;;3.77;;
3993;SDS011;2011;48.238;13.948;2024-01-06T11:26:43;7.70;;;3.00;;
3993;SDS011;2011;48.238;13.948;2024-01-06T11:29:11;4.20;;;3.03;;
3993;SDS011;2011;48.238;13.948;2024-01-06T11:31:39;5.87;;;4.13;;
3993;SDS011;2011;48.238;13.948;2024-01-06T11:34:12;5.90;;;3.77;;
3993;SDS011;2011;48.238;13.948;2024-01-06T11:36:42;11.50;;;6.37;;
3993;SDS011;2011;48.238;13.948;2024-01-06T11:42:01;6.90;;;4.77;;
3993;SDS011;2011;48.238;13.948;2024-01-06T11:44:29;5.93;;;4.00;;
3993;SDS011;2011;48.238;13.948;2024-01-06T11:47:00;7.03;;;4.40;;
3993;SDS011;2011;48.238;13.948;2024-01-06T11:49:29;5.13;;;3.90;;
3993;SDS011;2011;48.238;13.948;2024-01-06T11:51:56;5.43;;;3.70;;
3993;SDS011;2011;48.238;13.948;2024-01-06T11:54:23;7.40;;;4.33;;
3993;SDS011;2011;48.238;13.948;2024-01-06T11:56:50;6.00;;;3.23;;
3993;SDS011;2011;48.238;13.948;2024-01-06T11:59:19;8.73;;;3.53;;
3993;SDS011;2011;48.238;13.948;2024-01-06T12:01:46;8.80;;;3.77;;
3993;SDS011;2011;48.238;13.948;2024-01-06T12:04:14;6.00;;;3.67;;
3993;SDS011;2011;48.238;13.948;2024-01-06T12:06:41;4.60;;;3.57;;
3993;SDS011;2011;48.238;13.948;2024-01-06T12:09:10;6.67;;;4.00;;
3993;SDS011;2011;48.238;13.948;2024-01-06T12:11:39;7.03;;;4.20;;
3993;SDS011;2011;48.238;13.948;2024-01-06T12:14:07;5.27;;;3.47;;
3993;SDS011;2011;48.238;13.948;2024-01-06T12:16:34;4.63;;;3.50;;
3993;SDS011;2011;48.238;13.948;2024-01-06T12:19:01;6.90;;;4.07;;
3993;SDS011;2011;48.238;13.948;2024-01-06T12:21:30;5.97;;;3.93;;
3993;SDS011;2011;48.238;13.948;2024-01-06T12:24:15;6.13;;;3.80;;
3993;SDS011;2011;48.238;13.948;2024-01-06T12:26:45;7.30;;;4.20;;
3993;SDS011;2011;48.238;13.948;2024-01-06T12:29:12;7.73;;;4.80;;
3993;SDS011;2011;48.238;13.948;2024-01-06T12:31:39;7.90;;;5.20;;
3993;SDS011;2011;48.238;13.948;2024-01-06T12:34:07;7.07;;;4.93;;
3993;SDS011;2011;48.238;13.948;2024-01-06T12:36:35;12.90;;;4.40;;
3993;SDS011;2011;48.238;13.948;2024-01-06T12:39:04;6.97;;;4.73;;
3993;SDS011;2011;48.238;13.948;2024-01-06T12:41:31;7.40;;;5.37;;
3993;SDS011;2011;48.238;13.948;2024-01-06T12:43:58;8.97;;;4.90;;
3993;SDS011;2011;48.238;13.948;2024-01-06T12:46:27;10.13;;;6.93;;
3993;SDS011;2011;48.238;13.948;2024-01-06T12:48:54;9.73;;;6.13;;
3993;SDS011;2011;48.238;13.948;2024-01-06T12:51:21;16.10;;;7.50;;
3993;SDS011;2011;48.238;13.948;2024-01-06T12:53:49;9.00;;;5.77;;
3993;SDS011;2011;48.238;13.948;2024-01-06T12:56:16;12.30;;;7.13;;
3993;SDS011;2011;48.238;13.948;2024-01-06T12:58:43;8.40;;;5.80;;
3993;SDS011;2011;48.238;13.948;2024-01-06T13:01:10;7.90;;;5.57;;
3993;SDS011;2011;48.238;13.948;2024-01-06T13:03:37;7.80;;;6.03;;
3993;SDS011;2011;48.238;13.948;2024-01-06T13:06:04;8.40;;;6.23;;
3993;SDS011;2011;48.238;13.948;2024-01-06T13:08:31;10.67;;;6.77;;
3993;SDS011;2011;48.238;13.948;2024-01-06T13:10:59;11.13;;;7.70;;
3993;SDS011;2011;48.238;13.948;2024-01-06T13:13:26;8.47;;;5.80;;
3993;SDS011;2011;48.238;13.948;2024-01-06T13:15:53;11.03;;;6.00;;
3993;SDS011;2011;48.238;13.948;2024-01-06T13:18:20;7.83;;;5.33;;
3993;SDS011;2011;48.238;13.948;2024-01-06T13:20:47;8.37;;;5.43;;
3993;SDS011;2011;48.238;13.948;2024-01-06T13:23:14;12.43;;;5.80;;
3993;SDS011;2011;48.238;13.948;2024-01-06T13:25:42;9.17;;;6.40;;
3993;SDS011;2011;48.238;13.948;2024-01-06T13:28:11;11.20;;;6.57;;
3993;SDS011;2011;48.238;13.948;2024-01-06T13:30:38;10.40;;;5.80;;
3993;SDS011;2011;48.238;13.948;2024-01-06T13:33:06;9.40;;;6.40;;
3993;SDS011;2011;48.238;13.948;2024-01-06T13:35:34;7.03;;;5.83;;
3993;SDS011;2011;48.238;13.948;2024-01-06T13:38:01;11.73;;;7.80;;
3993;SDS011;2011;48.238;13.948;2024-01-06T13:40:29;8.00;;;6.20;;
3993;SDS011;2011;48.238;13.948;2024-01-06T13:42:57;7.10;;;5.30;;
3993;SDS011;2011;48.238;13.948;2024-01-06T13:45:25;8.70;;;5.70;;
3993;SDS011;2011;48.238;13.948;2024-01-06T13:47:55;10.70;;;6.07;;
3993;SDS011;2011;48.238;13.948;2024-01-06T13:50:22;10.40;;;6.90;;
3993;SDS011;2011;48.238;13.948;2024-01-06T13:52:49;9.57;;;6.40;;
3993;SDS011;2011;48.238;13.948;2024-01-06T13:55:16;7.73;;;5.70;;
3993;SDS011;2011;48.238;13.948;2024-01-06T13:57:43;12.60;;;8.00;;
3993;SDS011;2011;48.238;13.948;2024-01-06T14:00:11;11.40;;;6.10;;
3993;SDS011;2011;48.238;13.948;2024-01-06T14:02:45;15.77;;;7.60;;
3993;SDS011;2011;48.238;13.948;2024-01-06T14:05:13;9.97;;;6.00;;
3993;SDS011;2011;48.238;13.948;2024-01-06T14:07:40;9.20;;;6.67;;
3993;SDS011;2011;48.238;13.948;2024-01-06T14:10:10;10.87;;;6.60;;
3993;SDS011;2011;48.238;13.948;2024-01-06T14:12:39;8.80;;;5.93;;
3993;SDS011;2011;48.238;13.948;2024-01-06T14:15:07;9.73;;;5.77;;
3993;SDS011;2011;48.238;13.948;2024-01-06T14:17:35;7.40;;;5.93;;
3993;SDS011;2011;48.238;13.948;2024-01-06T14:20:04;6.50;;;5.10;;
3993;SDS011;2011;48.238;13.948;2024-01-06T14:22:31;5.50;;;4.40;;
3993;SDS011;2011;48.238;13.948;2024-01-06T14:24:58;6.80;;;4.60;;
3993;SDS011;2011;48.238;13.948;2024-01-06T14:27:25;7.67;;;5.20;;
3993;SDS011;2011;48.238;13.948;2024-01-06T14:29:53;5.97;;;4.87;;
3993;SDS011;2011;48.238;13.948;2024-01-06T14:32:21;9.70;;;5.23;;
3993;SDS011;2011;48.238;13.948;2024-01-06T14:34:49;11.03;;;5.27;;
3993;SDS011;2011;48.238;13.948;2024-01-06T14:37:18;7.10;;;5.10;;
3993;SDS011;2011;48.238;13.948;2024-01-06T14:39:45;5.63;;;4.60;;
3993;SDS011;2011;48.238;13.948;2024-01-06T14:42:12;6.70;;;4.77;;
3993;SDS011;2011;48.238;13.948;2024-01-06T14:44:38;7.40;;;5.00;;
3993;SDS011;2011;48.238;13.948;2024-01-06T14:47:06;7.00;;;5.10;;
3993;SDS011;2011;48.238;13.948;2024-01-06T14:49:33;5.47;;;4.40;;
3993;SDS011;2011;48.238;13.948;2024-01-06T14:52:00;6.10;;;4.50;;